Palmer Lake, Colorado
Current Conditions -  °F | °C
As of 2:58 PM on Monday 24 Nov 2014 (Local Time) from KAFF Reporting Station
Clear Clear  
Wind Chill: 23°   Ceiling: Unl
Heat Index: 33°   Visibility: 10mi
Dew Point:   Wind: 15mph
Humidity: 27%   Direction: 330°NNW
Pressure: 30.01"   Gusts: 21mph
Location:  39.12°N, 104.92°W
Report Text: KAFF 242158Z AUTO 33013G18KT 10SM CLR 01/M17 A3001 RMK AO2 SLP194 T00071166
Loading
Personal Weather Stations






























Interactive Weather Map New forecast layout! Learn more

10-Day Weather Forecast

Advertisements
Track Severe Weather on mobile